Eglin Air Force Base
KVPS : now visible

Airfield :











YOU CAN JOIN US ON...

 
LOGIN :

Register | Disclaimer

   EN    FR    IT 

 









Legend :    VFR   Marginal VFR   IFR   Intensive IFR   Very Intensive IFR
Visi :
Ceiling :
>= 8 km
>= 3000ft
5 to 8 km
1000 to 3000 ft
1500m to 5 km
500 to 1000 ft
800 to 1500m
200 to 500 ft
< 800m
< 200 ft
Symbols :   Thunderstorms  Fog  Heavy snow  Heavy precipitations  Wind > 20 kt






- Airport Elevation : 87 ft
- IATA code : VPS


KVPS - Eglin Air Force Base

CURRENT METAR :
  • 280501Z AUTO 16006KT 10SM BKN008 25/24 A2993 RMK AO2 SLP141 $

EXPIRED METARs :
  • 280356Z AUTO 15006KT 10SM CLR 25/24 A2994 RMK AO2 SLP145 T02490238 $
  • 280256Z AUTO 16006KT 10SM CLR 25/24 A2994 RMK AO2 DZB25E35 SLP145 P0000 60000 T02510235 52014 $
  • 280235Z AUTO 14005KT 10SM SCT120 25/23 A2993 RMK AO2 DZB25E35 SLP141 $
  • 280225Z AUTO 16007KT 10SM -DZ BKN120 25/23 A2994 RMK AO2 DZB25 SLP145 $

TAF TAF KVPS
Valid from the 28 at 01:00 until the 29 at 07:00 UTC


280100Z 2801/2907 20008KT 9999 FEW025 FEW040 SCT180 QNH2988INS
BECMG 2806/2807 21007KT 9999 BKN015 BKN100 QNH2989INS
BECMG 2808/2809 21006KT 9999 OVC008 QNH2990INS
BECMG 2811/2812 20009KT 9999 BKN012 BKN300 QNH2993INS
BECMG 2812/2813 19009KT 9999 SCT015 SCT040 BKN150 QNH2999INS WND 20006KT AFT 2901
BECMG 2905/2906 20008KT 9999 SCT008 BKN020 QNH3001INS TX29/2820Z TN23/2811Z
KZJX FIR / North America



MET'MAP, your aeronautical weather chart ! - Copyright ORBIFLY December 2007 - Disclaimer

ORBIFLY MET'MAP TEAM :

Programming & Development : Alexandra Zaïnal
Concept & original design : Baudouin d'Aumeries
Assistance for programming : Marc-Olivier Méhu
Technical & hardware support : Manuel Goepfert

Contact : metmap@orbifly.com




SOURCES & CREDITS :

   NOAA       Earth
Advisory